Time;durP1;ratioP1;P1;durP2;ratioP2;P2;SDS_P1;SDS_P2;PMS_P1;PMS_P2;Temp;Humidity;BMP_temperature;BMP_pressure;BME280_temperature;BME280_humidity;BME280_pressure;Samples;Min_cycle;Max_cycle;Signal;HPM_P1;HPM_P2
2022/03/11 00:01:50;;;;;;;13.50;10.70;;;;;;;0.96;44.85;95231.50;5087687;28;20185;-76
2022/03/11 00:04:15;;;;;;;19.80;11.50;;;;;;;0.50;46.13;95227.34;5067382;28;20180;-75
2022/03/11 00:06:41;;;;;;;15.10;11.17;;;;;;;0.72;45.80;95225.69;5072938;28;20167;-76
2022/03/11 00:09:06;;;;;;;10.33;8.67;;;;;;;0.71;45.69;95230.03;5072744;28;20170;-75
2022/03/11 00:11:32;;;;;;;9.83;8.40;;;;;;;0.50;46.42;95227.34;5086968;28;20234;-75
2022/03/11 00:13:57;;;;;;;10.83;9.70;;;;;;;0.62;46.16;95229.94;5073502;28;20220;-75
2022/03/11 00:16:41;;;;;;;8.80;7.90;;;;;;;0.78;45.47;95227.81;5076420;28;20298;-75
2022/03/11 00:19:06;;;;;;;12.95;9.45;;;;;;;1.06;45.20;95223.84;5061194;28;20325;-76
2022/03/11 00:21:32;;;;;;;11.97;9.90;;;;;;;1.05;45.54;95221.44;5075295;28;20642;-76
2022/03/11 00:23:57;;;;;;;13.90;10.90;;;;;;;0.76;46.08;95227.13;5083922;28;20256;-76
2022/03/11 00:26:24;;;;;;;20.20;11.50;;;;;;;0.53;48.14;95229.72;5067108;28;20223;-76
2022/03/11 00:28:50;;;;;;;20.73;14.10;;;;;;;0.45;48.18;95215.78;5070922;28;20194;-76
2022/03/11 00:31:15;;;;;;;15.47;11.20;;;;;;;0.62;48.23;95212.72;5069040;28;20176;-76
2022/03/11 00:33:40;;;;;;;14.97;10.60;;;;;;;0.17;48.31;95211.00;5072891;28;20411;-76
2022/03/11 00:36:06;;;;;;;20.07;13.77;;;;;;;0.39;48.16;95210.16;5078717;28;20209;-75
2022/03/11 00:38:32;;;;;;;15.60;12.10;;;;;;;0.37;49.03;95212.03;5080506;28;20178;-76
2022/03/11 00:40:58;;;;;;;20.97;14.00;;;;;;;0.41;48.74;95206.66;5075517;28;20905;-75
2022/03/11 00:43:24;;;;;;;23.77;14.67;;;;;;;0.15;49.41;95200.00;5086102;28;20210;-76
2022/03/11 00:45:50;;;;;;;20.50;15.77;;;;;;;0.16;50.36;95199.03;5069972;28;20523;-75
2022/03/11 00:48:15;;;;;;;18.55;13.90;;;;;;;0.16;50.49;95209.34;5066594;28;20190;-76
2022/03/11 00:50:41;;;;;;;20.50;14.33;;;;;;;0.44;50.02;95206.41;5077647;28;20181;-75
2022/03/11 00:53:06;;;;;;;21.17;14.60;;;;;;;-0.13;51.87;95208.13;5073022;28;20264;-75
2022/03/11 00:55:32;;;;;;;23.47;15.53;;;;;;;0.05;50.88;95206.75;5067723;28;20198;-76
2022/03/11 00:57:57;;;;;;;24.17;14.90;;;;;;;0.44;50.55;95202.09;5080447;28;20228;-75
2022/03/11 01:00:23;;;;;;;23.20;15.60;;;;;;;0.21;51.02;95203.03;5075076;28;20260;-75
2022/03/11 01:02:49;;;;;;;18.35;14.32;;;;;;;0.24;50.79;95205.38;5071752;28;20170;-76
2022/03/11 01:05:15;;;;;;;19.73;14.13;;;;;;;0.06;51.27;95210.97;5071505;28;20185;-75
2022/03/11 01:07:40;;;;;;;23.10;15.30;;;;;;;0.06;51.44;95208.41;5061055;28;20684;-75
2022/03/11 01:10:07;;;;;;;19.03;14.97;;;;;;;0.25;51.27;95207.84;5077667;28;20190;-75
2022/03/11 01:12:33;;;;;;;21.73;14.05;;;;;;;0.29;50.86;95198.94;5068330;28;20178;-75
2022/03/11 01:14:58;;;;;;;18.20;13.67;;;;;;;0.32;50.59;95203.03;5065687;28;20227;-76
2022/03/11 01:17:24;;;;;;;18.53;13.30;;;;;;;0.27;50.76;95207.72;5045853;28;20175;-76
2022/03/11 01:19:49;;;;;;;16.87;15.00;;;;;;;0.19;51.06;95222.00;5042312;28;20179;-76
2022/03/11 01:22:15;;;;;;;12.60;11.30;;;;;;;0.13;50.32;95219.03;5056244;28;20287;-76
2022/03/11 01:24:40;;;;;;;16.60;12.60;;;;;;;0.26;50.00;95218.94;5052535;28;20242;-75
2022/03/11 01:27:06;;;;;;;16.83;11.70;;;;;;;0.34;49.81;95219.16;5066245;28;20191;-76
2022/03/11 01:29:31;;;;;;;17.13;10.90;;;;;;;-0.24;51.26;95212.34;5034236;28;20167;-75
2022/03/11 01:31:57;;;;;;;13.30;11.40;;;;;;;-0.61;50.81;95209.91;5065946;28;20537;-75
2022/03/11 01:34:23;;;;;;;15.37;12.10;;;;;;;-0.58;50.91;95208.06;5051015;28;20671;-76
2022/03/11 01:36:48;;;;;;;14.10;11.63;;;;;;;-0.23;50.19;95205.44;5053668;28;20681;-76
2022/03/11 01:39:14;;;;;;;14.10;12.43;;;;;;;-0.02;50.17;95209.00;5033932;28;20168;-76
2022/03/11 01:41:39;;;;;;;16.70;12.50;;;;;;;-0.36;51.28;95208.13;5052556;28;20179;-76
2022/03/11 01:44:07;;;;;;;17.47;11.60;;;;;;;-0.15;51.07;95210.00;5051805;28;20181;-75
2022/03/11 01:46:34;;;;;;;23.00;14.00;;;;;;;-0.03;50.24;95206.53;5046921;28;20175;-75
2022/03/11 01:49:01;;;;;;;15.10;11.70;;;;;;;-0.03;50.42;95203.97;5046048;28;20260;-76
2022/03/11 01:51:28;;;;;;;17.88;12.68;;;;;;;-0.07;50.31;95202.56;5053474;28;20209;-75
2022/03/11 01:53:55;;;;;;;16.00;12.25;;;;;;;-0.20;50.61;95205.22;5060962;28;20654;-76
2022/03/11 01:56:24;;;;;;;18.17;12.50;;;;;;;-0.25;50.36;95204.72;5053043;28;20174;-76
2022/03/11 01:58:54;;;;;;;15.52;12.50;;;;;;;-0.18;50.34;95205.91;5061667;28;20187;-75
2022/03/11 02:01:21;;;;;;;16.65;11.88;;;;;;;-0.13;49.67;95203.00;5039269;28;20226;-76
2022/03/11 02:03:47;;;;;;;16.58;12.00;;;;;;;-0.21;49.65;95196.69;5059174;28;20199;-76
2022/03/11 02:06:14;;;;;;;17.60;11.18;;;;;;;0.12;49.15;95207.94;5027603;28;20180;-76
2022/03/11 02:08:41;;;;;;;13.65;11.98;;;;;;;-0.57;50.41;95197.63;5045902;28;20191;-76
2022/03/11 02:11:07;;;;;;;14.27;11.25;;;;;;;-0.25;49.76;95203.00;5041820;28;20243;-75
2022/03/11 02:13:49;;;;;;;13.15;10.85;;;;;;;-0.14;49.73;95198.78;5047528;28;20176;-75
2022/03/11 02:16:16;;;;;;;12.27;9.75;;;;;;;-0.15;49.82;95204.88;5063084;28;20222;-76
2022/03/11 02:18:42;;;;;;;15.85;10.13;;;;;;;-0.32;50.36;95203.53;5065489;28;20247;-75
2022/03/11 02:21:09;;;;;;;15.10;11.40;;;;;;;-0.60;50.79;95200.44;5079717;28;20187;-75
2022/03/11 02:23:56;;;;;;;11.88;10.30;;;;;;;-0.65;50.21;95205.91;5074141;28;20412;-75
2022/03/11 02:26:24;;;;;;;10.05;5.65;;;;;;;-1.43;51.37;95212.31;5045829;28;20183;-75
2022/03/11 02:28:52;;;;;;;10.20;7.88;;;;;;;-1.44;50.41;95214.97;5031799;28;20291;-75
2022/03/11 02:31:20;;;;;;;9.55;6.60;;;;;;;-1.59;50.35;95211.75;5058680;28;20182;-75
2022/03/11 02:33:46;;;;;;;10.02;8.25;;;;;;;-1.09;48.94;95209.94;5054296;28;20257;-75
2022/03/11 02:36:11;;;;;;;13.30;8.17;;;;;;;-1.89;50.83;95218.03;5053805;28;20219;-75
2022/03/11 02:38:37;;;;;;;8.53;6.90;;;;;;;-1.71;51.12;95213.38;5073042;28;20198;-75
2022/03/11 02:41:04;;;;;;;7.85;6.40;;;;;;;-2.01;52.20;95226.53;5070783;28;20185;-75
2022/03/11 02:43:29;;;;;;;10.63;6.90;;;;;;;-2.05;52.75;95223.38;5083798;28;20169;-75
2022/03/11 02:45:54;;;;;;;10.60;7.90;;;;;;;-2.03;52.70;95223.25;5072709;28;20287;-75
2022/03/11 02:48:20;;;;;;;14.87;9.37;;;;;;;-1.16;51.36;95221.56;5075343;28;20240;-75
2022/03/11 02:50:46;;;;;;;11.70;9.10;;;;;;;-0.94;50.32;95217.50;5068152;28;20205;-75
2022/03/11 02:53:11;;;;;;;11.80;8.33;;;;;;;-0.97;50.54;95221.06;5076929;28;20170;-76
2022/03/11 02:55:37;;;;;;;11.73;6.93;;;;;;;-1.22;50.81;95230.50;5065391;28;20233;-76
2022/03/11 02:58:03;;;;;;;11.73;8.47;;;;;;;-1.07;50.40;95228.63;5065142;28;20201;-75
2022/03/11 03:00:28;;;;;;;8.57;6.73;;;;;;;-1.19;50.80;95234.63;5079597;28;20178;-75
2022/03/11 03:02:54;;;;;;;7.23;5.67;;;;;;;-1.33;51.40;95224.50;5078942;28;20420;-75
2022/03/11 03:05:19;;;;;;;6.53;5.93;;;;;;;-1.20;50.79;95225.28;5065832;28;20186;-75
2022/03/11 03:07:45;;;;;;;8.80;6.90;;;;;;;-1.21;50.91;95228.78;5082311;28;20197;-75
2022/03/11 03:10:11;;;;;;;11.23;6.77;;;;;;;-0.58;49.40;95226.84;5081740;28;20637;-75
2022/03/11 03:12:37;;;;;;;7.97;6.30;;;;;;;-0.76;49.56;95226.41;5066176;28;20170;-75
2022/03/11 03:15:03;;;;;;;10.30;6.97;;;;;;;-1.28;50.38;95232.72;5065499;28;20215;-75
2022/03/11 03:17:29;;;;;;;9.63;6.80;;;;;;;-1.07;50.85;95228.63;5078712;28;20166;-75
2022/03/11 03:19:54;;;;;;;7.30;6.60;;;;;;;-0.93;50.51;95226.81;5051045;28;20447;-75
2022/03/11 03:22:20;;;;;;;10.13;6.80;;;;;;;-0.55;48.71;95223.22;5071944;28;20176;-76
2022/03/11 03:24:46;;;;;;;6.63;5.80;;;;;;;-0.65;49.06;95225.66;5076393;28;20179;-75
2022/03/11 03:27:12;;;;;;;8.25;5.97;;;;;;;-1.35;50.93;95232.31;5068565;28;20186;-75
2022/03/11 03:29:37;;;;;;;12.40;5.93;;;;;;;-0.73;48.84;95238.25;5076979;28;20227;-75
2022/03/11 03:32:03;;;;;;;7.43;6.60;;;;;;;-1.28;49.55;95237.84;5074645;28;20669;-75
2022/03/11 03:34:31;;;;;;;9.97;7.60;;;;;;;-1.08;49.57;95233.84;5078761;28;20257;-75
2022/03/11 03:36:57;;;;;;;8.65;7.85;;;;;;;-1.05;49.73;95231.91;5082022;28;20412;-75
2022/03/11 03:39:23;;;;;;;11.80;7.82;;;;;;;-1.02;49.81;95236.00;5076025;28;20173;-75
2022/03/11 03:41:49;;;;;;;14.40;8.20;;;;;;;-0.90;49.56;95234.31;5088716;28;20166;-75
2022/03/11 03:44:14;;;;;;;10.00;8.00;;;;;;;-1.20;50.58;95238.13;5080558;28;20181;-76
2022/03/11 03:46:40;;;;;;;8.57;7.47;;;;;;;-1.17;50.48;95232.78;5068445;28;20234;-75
2022/03/11 03:49:05;;;;;;;9.17;8.27;;;;;;;-1.31;50.53;95235.47;5068121;28;20167;-75
2022/03/11 03:51:31;;;;;;;13.07;7.73;;;;;;;-1.25;50.30;95235.03;5078086;28;20209;-75
2022/03/11 03:53:57;;;;;;;11.82;8.60;;;;;;;-1.16;50.39;95236.97;5074798;28;20170;-75
2022/03/11 03:56:22;;;;;;;10.70;8.10;;;;;;;-1.30;49.99;95232.81;5079479;28;20182;-75
2022/03/11 03:58:48;;;;;;;10.47;8.57;;;;;;;-1.60;51.29;95241.69;5063737;28;20167;-76
2022/03/11 04:01:14;;;;;;;13.30;8.33;;;;;;;-1.42;50.81;95236.25;5068593;28;20238;-75
2022/03/11 04:03:39;;;;;;;10.17;7.40;;;;;;;-1.17;50.05;95243.03;5051049;28;20253;-75
2022/03/11 04:06:05;;;;;;;14.40;8.63;;;;;;;-1.46;50.41;95239.91;5070337;28;20211;-74
2022/03/11 04:08:31;;;;;;;12.98;9.20;;;;;;;-1.48;50.38;95236.66;5071064;28;20210;-75
2022/03/11 04:10:57;;;;;;;14.53;8.00;;;;;;;-1.32;49.80;95239.81;5088037;28;20193;-75
2022/03/11 04:13:22;;;;;;;15.60;9.77;;;;;;;-1.61;50.31;95249.53;5075327;28;20197;-75
2022/03/11 04:15:47;;;;;;;13.80;10.03;;;;;;;-1.54;50.87;95260.97;5054354;28;20229;-75
2022/03/11 04:18:13;;;;;;;13.07;9.03;;;;;;;-1.31;50.56;95256.84;5074479;28;20170;-75
2022/03/11 04:20:39;;;;;;;13.90;11.07;;;;;;;-1.43;51.65;95261.06;5081503;28;20183;-75
2022/03/11 04:23:04;;;;;;;14.27;11.00;;;;;;;-1.36;52.29;95261.47;5071085;28;20578;-75
2022/03/11 04:25:30;;;;;;;18.50;14.03;;;;;;;-1.30;52.36;95267.94;5081492;28;20205;-75
2022/03/11 04:27:55;;;;;;;21.97;12.87;;;;;;;-1.56;53.34;95270.53;5049477;28;20216;-76
2022/03/11 04:30:21;;;;;;;21.60;13.33;;;;;;;-1.28;53.31;95266.91;5080718;28;20182;-75
2022/03/11 04:32:46;;;;;;;24.20;13.90;;;;;;;-1.23;53.51;95271.72;5071756;28;20170;-75
2022/03/11 04:35:12;;;;;;;19.63;14.47;;;;;;;-0.98;52.78;95269.06;5081938;28;20182;-75
2022/03/11 04:37:37;;;;;;;15.70;13.20;;;;;;;-1.09;53.61;95265.63;5084401;28;20181;-75
2022/03/11 04:40:04;;;;;;;13.90;9.97;;;;;;;-1.57;53.68;95274.03;5073168;28;20158;-75
2022/03/11 04:42:30;;;;;;;18.40;11.15;;;;;;;-1.53;53.06;95267.78;5087306;28;20169;-75
2022/03/11 04:44:56;;;;;;;8.07;5.33;;;;;;;-2.43;54.17;95264.34;5055310;28;20177;-75
2022/03/11 04:47:21;;;;;;;9.00;6.10;;;;;;;-2.69;55.25;95266.03;5058467;28;20207;-75
2022/03/11 04:49:47;;;;;;;10.00;6.87;;;;;;;-2.46;54.80;95262.81;5087363;28;20629;-75
2022/03/11 04:52:12;;;;;;;11.60;9.80;;;;;;;-2.41;54.68;95265.91;5049157;28;20265;-75
2022/03/11 04:54:37;;;;;;;12.03;9.20;;;;;;;-1.88;52.82;95265.00;5069187;28;20197;-75
2022/03/11 04:57:03;;;;;;;13.23;9.17;;;;;;;-1.75;52.99;95273.53;5058745;28;20247;-76
2022/03/11 04:59:28;;;;;;;16.60;9.70;;;;;;;-1.59;52.78;95266.44;5077128;28;20181;-75
2022/03/11 05:01:54;;;;;;;13.33;9.50;;;;;;;-1.66;53.08;95272.91;5066812;28;20174;-75
2022/03/11 05:04:19;;;;;;;9.80;8.67;;;;;;;-1.39;52.87;95266.81;5067136;28;20170;-74
2022/03/11 05:06:45;;;;;;;13.03;9.90;;;;;;;-1.34;52.33;95274.22;5061542;28;20258;-75
2022/03/11 05:09:10;;;;;;;14.67;11.30;;;;;;;-1.19;52.40;95275.72;5062630;28;20230;-75
2022/03/11 05:11:36;;;;;;;17.07;11.70;;;;;;;-1.27;52.91;95275.41;5070989;28;20176;-75
2022/03/11 05:14:02;;;;;;;14.00;10.68;;;;;;;-1.11;52.58;95276.00;5062435;28;20175;-75
2022/03/11 05:16:27;;;;;;;13.50;11.30;;;;;;;-0.93;51.74;95280.75;5070044;28;20218;-74
2022/03/11 05:18:53;;;;;;;17.17;11.37;;;;;;;-0.81;51.63;95282.47;5081486;28;20170;-75
2022/03/11 05:21:20;;;;;;;16.80;11.03;;;;;;;-0.98;51.65;95284.47;5082790;28;20237;-75
2022/03/11 05:23:45;;;;;;;17.35;12.85;;;;;;;-0.71;51.88;95286.03;5082381;28;20253;-75
2022/03/11 05:26:24;;;;;;;16.50;12.67;;;;;;;-0.77;52.09;95290.78;5049661;28;20175;-75
2022/03/11 05:28:55;;;;;;;16.85;12.48;;;;;;;-0.83;52.41;95290.28;5072962;28;20262;-75
2022/03/11 05:31:21;;;;;;;20.23;14.38;;;;;;;-0.91;52.77;95290.00;5083002;28;20541;-75
2022/03/11 05:33:48;;;;;;;22.08;14.45;;;;;;;-0.79;52.47;95298.59;5056400;28;20261;-75
2022/03/11 05:36:14;;;;;;;20.75;16.63;;;;;;;-1.02;53.38;95298.47;5066436;28;20175;-75
2022/03/11 05:38:40;;;;;;;23.15;17.02;;;;;;;-0.87;53.53;95301.72;5047870;28;20165;-75
2022/03/11 05:41:05;;;;;;;18.50;15.27;;;;;;;-0.64;53.28;95307.78;5064888;28;20245;-75
2022/03/11 05:43:31;;;;;;;22.70;16.10;;;;;;;-0.77;53.29;95309.59;5066622;28;20182;-75
2022/03/11 05:45:56;;;;;;;19.80;16.33;;;;;;;-1.12;54.26;95312.88;5066485;28;20232;-75
2022/03/11 05:48:22;;;;;;;24.40;18.10;;;;;;;-0.84;53.42;95314.31;5065574;28;20174;-75
2022/03/11 05:50:47;;;;;;;24.63;16.60;;;;;;;-0.61;52.48;95317.84;5082847;28;20649;-75
2022/03/11 05:53:13;;;;;;;23.70;18.23;;;;;;;-0.60;51.95;95318.66;5056008;28;20178;-75
2022/03/11 05:55:38;;;;;;;22.53;16.87;;;;;;;-0.18;50.77;95313.94;5083576;28;20177;-75
2022/03/11 05:58:04;;;;;;;17.80;14.57;;;;;;;-0.03;49.44;95312.00;5085622;28;20154;-75
2022/03/11 06:00:29;;;;;;;16.43;13.13;;;;;;;-0.39;49.23;95311.16;5066664;28;20269;-75
2022/03/11 06:02:55;;;;;;;14.40;12.87;;;;;;;-1.11;51.25;95321.41;5075604;28;20165;-75
2022/03/11 06:05:20;;;;;;;18.23;14.00;;;;;;;-0.41;50.19;95316.41;5074433;28;20645;-75
2022/03/11 06:07:46;;;;;;;21.80;14.20;;;;;;;-0.06;49.69;95312.22;5073266;28;20194;-75
2022/03/11 06:10:11;;;;;;;19.10;14.00;;;;;;;0.36;48.80;95317.69;5065722;28;20286;-75
2022/03/11 06:12:36;;;;;;;22.83;15.70;;;;;;;0.71;48.55;95319.34;5065683;28;20630;-75
2022/03/11 06:15:11;;;;;;;28.47;15.67;;;;;;;0.49;48.86;95320.97;5072117;28;20221;-75
2022/03/11 06:17:36;;;;;;;25.52;16.13;;;;;;;0.95;48.48;95319.25;5056398;28;20185;-75
2022/03/11 06:20:03;;;;;;;29.70;16.23;;;;;;;1.28;47.68;95326.09;5069061;28;20186;-75
2022/03/11 06:22:28;;;;;;;18.20;14.10;;;;;;;1.43;47.51;95328.41;5047871;28;20240;-75
2022/03/11 06:24:54;;;;;;;30.33;16.67;;;;;;;1.16;48.08;95327.88;5065442;28;20174;-75
2022/03/11 06:27:19;;;;;;;21.07;15.17;;;;;;;0.93;48.91;95326.25;5085338;28;20196;-75
2022/03/11 06:29:44;;;;;;;25.03;17.93;;;;;;;0.85;48.65;95332.00;5073042;28;20511;-75
2022/03/11 06:32:10;;;;;;;20.80;14.70;;;;;;;0.42;49.65;95332.69;5047838;28;20170;-75
2022/03/11 06:34:37;;;;;;;26.10;16.63;;;;;;;1.14;48.67;95336.69;5065347;28;20209;-75
2022/03/11 06:37:03;;;;;;;22.85;16.35;;;;;;;1.54;47.63;95344.66;5065175;28;20269;-75
2022/03/11 06:39:28;;;;;;;23.47;17.77;;;;;;;1.35;47.37;95340.16;5065471;28;20170;-75
2022/03/11 06:41:54;;;;;;;22.10;15.97;;;;;;;1.82;46.72;95339.06;5065744;28;20475;-75
2022/03/11 06:44:19;;;;;;;16.83;15.03;;;;;;;1.75;46.60;95334.41;5047645;28;20170;-75
2022/03/11 06:46:45;;;;;;;18.13;13.93;;;;;;;2.27;46.00;95338.84;5065763;28;20159;-75
2022/03/11 06:49:11;;;;;;;17.63;13.67;;;;;;;1.53;45.93;95337.06;5084687;28;20169;-75
2022/03/11 06:51:36;;;;;;;15.67;13.97;;;;;;;1.49;46.42;95335.66;5067803;28;20170;-75
2022/03/11 06:54:04;;;;;;;16.37;12.07;;;;;;;1.31;46.47;95338.75;5082376;28;20253;-75
2022/03/11 06:56:30;;;;;;;20.83;14.80;;;;;;;1.20;47.36;95341.34;5082568;28;20181;-75
2022/03/11 06:58:55;;;;;;;16.23;11.90;;;;;;;1.14;46.71;95345.22;5075379;28;20166;-74
2022/03/11 07:01:21;;;;;;;15.57;12.83;;;;;;;0.90;47.26;95347.91;5087210;28;20182;-74
2022/03/11 07:03:46;;;;;;;17.43;13.93;;;;;;;1.40;46.28;95338.97;5071649;28;20248;-75
2022/03/11 07:06:12;;;;;;;20.70;14.93;;;;;;;1.34;46.67;95341.06;5074135;28;20185;-76
2022/03/11 07:08:37;;;;;;;20.13;14.93;;;;;;;0.59;48.50;95344.28;5062194;28;20263;-75
2022/03/11 07:11:03;;;;;;;20.17;15.70;;;;;;;1.40;47.88;95349.28;5070376;28;20171;-75
2022/03/11 07:13:30;;;;;;;23.37;16.10;;;;;;;1.19;47.28;95350.00;5069188;28;20636;-75
2022/03/11 07:15:56;;;;;;;20.05;15.18;;;;;;;1.40;47.19;95354.44;5069030;28;20291;-75
2022/03/11 07:18:21;;;;;;;15.38;12.38;;;;;;;1.27;46.67;95349.41;5058199;28;20177;-75
2022/03/11 07:20:47;;;;;;;14.20;11.07;;;;;;;-0.02;48.94;95355.63;5063798;28;20707;-75
2022/03/11 07:23:12;;;;;;;24.60;15.07;;;;;;;0.41;48.85;95359.34;5088226;28;20181;-75
2022/03/11 07:25:38;;;;;;;22.43;14.80;;;;;;;1.43;46.97;95351.63;5069415;28;20257;-75
2022/03/11 07:28:04;;;;;;;19.57;15.20;;;;;;;1.67;45.83;95347.09;5068423;28;20218;-75
2022/03/11 07:30:30;;;;;;;16.77;11.97;;;;;;;1.60;44.58;95345.94;5067800;28;20174;-74
2022/03/11 07:32:55;;;;;;;16.90;9.80;;;;;;;1.18;44.92;95345.81;5066958;28;20419;-75
2022/03/11 07:35:20;;;;;;;11.87;9.60;;;;;;;0.48;46.87;95352.00;5073859;28;20212;-75
2022/03/11 07:37:46;;;;;;;33.80;18.87;;;;;;;0.83;47.80;95346.75;5075043;28;20177;-75
2022/03/11 07:40:13;;;;;;;21.10;16.20;;;;;;;1.72;45.37;95339.78;5069019;28;20183;-75
2022/03/11 07:42:42;;;;;;;11.63;9.77;;;;;;;1.92;43.94;95340.78;5066846;28;20171;-75
2022/03/11 07:45:13;;;;;;;18.42;9.80;;;;;;;1.22;44.69;95341.22;5059337;28;20205;-75
2022/03/11 07:47:40;;;;;;;17.73;11.70;;;;;;;0.89;45.08;95346.31;5068943;28;20537;-75
2022/03/11 07:50:08;;;;;;;13.65;10.70;;;;;;;1.66;44.26;95350.63;5073728;28;20170;-75
2022/03/11 07:52:34;;;;;;;12.38;9.38;;;;;;;1.87;43.33;95348.06;5050442;28;20177;-74
2022/03/11 07:55:00;;;;;;;9.05;8.15;;;;;;;1.40;44.21;95346.69;5049869;28;20205;-74
2022/03/11 07:57:25;;;;;;;11.93;9.27;;;;;;;0.94;44.66;95349.31;5076729;28;20163;-75
2022/03/11 07:59:51;;;;;;;5.73;4.83;;;;;;;1.40;43.74;95347.50;5072965;28;20514;-75
2022/03/11 08:02:16;;;;;;;12.60;8.90;;;;;;;1.19;44.44;95344.03;5081074;28;20197;-74
2022/03/11 08:04:42;;;;;;;11.20;7.57;;;;;;;1.75;43.91;95346.50;5085586;28;20185;-75
2022/03/11 08:07:11;;;;;;;14.40;10.30;;;;;;;1.05;44.85;95350.28;5071904;28;20198;-75
2022/03/11 08:09:42;;;;;;;13.82;9.13;;;;;;;1.31;44.80;95346.47;5060268;28;20435;-75
2022/03/11 08:12:08;;;;;;;8.48;7.22;;;;;;;1.64;43.84;95349.91;5081761;28;20169;-75
2022/03/11 08:14:33;;;;;;;7.82;7.00;;;;;;;2.38;41.79;95345.72;5057999;28;20214;-75
2022/03/11 08:16:59;;;;;;;10.47;6.70;;;;;;;2.32;41.99;95344.47;5068053;28;20427;-75
2022/03/11 08:19:24;;;;;;;12.00;8.43;;;;;;;2.32;41.88;95345.28;5078835;28;20167;-74
2022/03/11 08:21:51;;;;;;;8.20;6.60;;;;;;;2.37;41.43;95351.84;5072926;28;20182;-74
2022/03/11 08:24:17;;;;;;;7.63;6.93;;;;;;;2.49;41.04;95349.06;5055423;28;20182;-75
2022/03/11 08:26:43;;;;;;;7.35;6.60;;;;;;;3.02;40.25;95352.47;5067606;28;20243;-75
2022/03/11 08:29:08;;;;;;;4.47;3.77;;;;;;;1.81;42.55;95342.59;5071038;28;20206;-75
2022/03/11 08:31:34;;;;;;;5.27;3.90;;;;;;;1.01;43.38;95343.72;5079292;28;20205;-75
2022/03/11 08:34:00;;;;;;;4.13;3.77;;;;;;;1.54;43.32;95357.56;5067505;28;20260;-75
2022/03/11 08:36:25;;;;;;;7.77;7.00;;;;;;;2.57;40.60;95350.19;5041241;28;20185;-74
2022/03/11 08:38:51;;;;;;;7.83;6.00;;;;;;;3.26;39.69;95347.78;5071191;28;20181;-75
2022/03/11 08:41:16;;;;;;;13.50;7.77;;;;;;;3.82;39.00;95343.78;5061677;28;20174;-75
2022/03/11 08:43:43;;;;;;;10.93;6.60;;;;;;;4.40;36.40;95336.94;5069056;28;20413;-75
2022/03/11 08:46:12;;;;;;;14.95;6.82;;;;;;;4.51;36.64;95334.19;5073035;28;20178;-74
2022/03/11 08:48:38;;;;;;;7.65;6.97;;;;;;;4.81;36.38;95333.16;5053460;28;20193;-75
2022/03/11 08:51:06;;;;;;;7.65;6.82;;;;;;;4.41;35.90;95329.03;5093485;28;20341;-75
2022/03/11 08:53:31;;;;;;;5.75;4.63;;;;;;;2.85;38.67;95326.25;5080924;28;20208;-75
2022/03/11 08:55:57;;;;;;;2.70;2.50;;;;;;;2.19;40.04;95333.53;5077188;28;20182;-75
2022/03/11 08:58:22;;;;;;;10.13;7.70;;;;;;;2.11;40.11;95324.63;5066492;28;20203;-74
2022/03/11 09:00:48;;;;;;;10.33;7.63;;;;;;;2.76;39.32;95329.63;5087516;28;20178;-75
2022/03/11 09:03:13;;;;;;;10.43;9.27;;;;;;;3.80;38.17;95321.59;5083227;28;20164;-75
2022/03/11 09:05:40;;;;;;;8.10;6.10;;;;;;;3.00;38.99;95337.06;5083735;28;20177;-75
2022/03/11 09:08:07;;;;;;;11.38;7.45;;;;;;;2.58;39.78;95332.00;5058314;28;20190;-75
2022/03/11 09:10:34;;;;;;;10.02;7.28;;;;;;;3.50;38.29;95334.47;5050128;28;20193;-75
2022/03/11 09:12:59;;;;;;;13.13;7.65;;;;;;;4.53;36.15;95321.09;5063439;28;20175;-75
2022/03/11 09:15:25;;;;;;;10.60;6.90;;;;;;;4.36;36.17;95318.25;5048941;28;20285;-75
2022/03/11 09:17:50;;;;;;;8.00;5.57;;;;;;;4.15;36.12;95323.59;5086391;28;20675;-74
2022/03/11 09:20:17;;;;;;;6.40;4.73;;;;;;;4.03;35.78;95330.72;5087610;28;20293;-75
2022/03/11 09:22:43;;;;;;;6.90;6.17;;;;;;;3.72;36.94;95323.06;5050757;28;20456;-75
2022/03/11 09:25:10;;;;;;;6.33;5.23;;;;;;;3.24;36.60;95330.75;5066287;28;20440;-74
2022/03/11 09:27:36;;;;;;;11.30;8.20;;;;;;;3.45;36.50;95325.47;5066676;28;20203;-75
2022/03/11 09:30:07;;;;;;;8.63;7.30;;;;;;;4.07;35.53;95332.06;5073395;28;20181;-75
2022/03/11 09:32:32;;;;;;;7.32;6.30;;;;;;;3.64;35.68;95322.94;5077694;28;20439;-74
2022/03/11 09:34:59;;;;;;;7.00;6.30;;;;;;;3.53;36.26;95328.22;5066606;28;20252;-75
2022/03/11 09:37:26;;;;;;;12.60;7.00;;;;;;;4.00;34.61;95325.78;5060481;28;20178;-75
2022/03/11 09:39:51;;;;;;;5.30;4.80;;;;;;;3.68;34.39;95326.88;5055115;28;20543;-75
2022/03/11 09:42:17;;;;;;;9.80;6.20;;;;;;;2.37;37.13;95333.75;5057088;28;20461;-74
2022/03/11 09:44:50;;;;;;;10.43;6.63;;;;;;;2.92;37.00;95329.13;5068711;28;20174;-75
2022/03/11 09:47:16;;;;;;;7.20;5.93;;;;;;;2.37;37.81;95329.41;5061876;28;20217;-75
2022/03/11 09:49:42;;;;;;;33.50;9.30;;;;;;;2.69;38.87;95326.75;5046453;28;20453;-75
2022/03/11 09:52:09;;;;;;;20.03;8.93;;;;;;;3.30;37.81;95328.47;5063955;28;20175;-75
2022/03/11 09:54:35;;;;;;;9.32;7.28;;;;;;;3.10;37.19;95324.19;5065328;28;20166;-75
2022/03/11 09:57:01;;;;;;;25.55;8.35;;;;;;;3.13;37.77;95321.34;5065494;28;20186;-75
2022/03/11 09:59:27;;;;;;;14.30;7.97;;;;;;;3.94;36.65;95317.75;5048579;28;20174;-75
2022/03/11 10:01:54;;;;;;;8.77;7.83;;;;;;;4.12;36.28;95313.53;5079970;28;20804;-75
2022/03/11 10:04:19;;;;;;;18.88;8.90;;;;;;;4.68;35.97;95317.91;5062438;28;20937;-75
2022/03/11 10:06:47;;;;;;;8.77;7.87;;;;;;;5.13;34.55;95312.97;5062835;28;20178;-75
2022/03/11 10:09:33;;;;;;;9.93;6.90;;;;;;;5.37;33.52;95310.66;5065004;28;20214;-75
2022/03/11 10:12:00;;;;;;;9.80;7.87;;;;;;;4.96;34.44;95311.97;5067440;28;20425;-75
2022/03/11 10:14:32;;;;;;;10.97;9.00;;;;;;;5.42;33.72;95312.81;5075842;28;20466;-75
2022/03/11 10:16:58;;;;;;;11.60;9.43;;;;;;;5.70;32.96;95299.81;5044224;28;21090;-75
2022/03/11 10:19:24;;;;;;;8.77;7.80;;;;;;;5.01;34.48;95314.97;5043383;28;20766;-75
2022/03/11 10:21:50;;;;;;;13.10;7.90;;;;;;;5.70;33.35;95310.19;5044028;28;20430;-75
2022/03/11 10:24:18;;;;;;;8.97;7.30;;;;;;;5.49;33.81;95311.28;5025682;28;20449;-75
2022/03/11 10:26:46;;;;;;;11.80;9.30;;;;;;;5.12;34.23;95312.16;5041469;28;20414;-76
2022/03/11 10:29:17;;;;;;;7.90;7.10;;;;;;;5.58;33.26;95307.81;5025624;28;20488;-75
2022/03/11 10:31:46;;;;;;;16.83;9.40;;;;;;;5.23;34.78;95311.16;5044353;28;20410;-75
2022/03/11 10:34:17;;;;;;;13.47;9.70;;;;;;;5.38;35.36;95308.88;5026488;28;20417;-75
2022/03/11 10:37:04;;;;;;;13.50;10.47;;;;;;;4.88;36.08;95316.09;5025571;28;20469;-75
2022/03/11 10:39:40;;;;;;;15.10;10.60;;;;;;;3.20;39.20;95308.69;5025476;28;20509;-75
2022/03/11 10:42:19;;;;;;;14.23;9.30;;;;;;;3.49;39.67;95319.91;5045814;28;20425;-75
2022/03/11 10:45:10;;;;;;;11.40;9.90;;;;;;;4.11;39.20;95314.47;5026554;28;20532;-75
2022/03/11 10:47:41;;;;;;;12.20;9.10;;;;;;;4.52;38.08;95303.94;5047279;28;20803;-75
2022/03/11 10:50:08;;;;;;;7.73;6.93;;;;;;;3.51;38.51;95309.44;5059734;28;20541;-75
2022/03/11 10:52:52;;;;;;;12.63;8.80;;;;;;;4.06;38.52;95304.53;5044110;28;20421;-76
2022/03/11 10:55:23;;;;;;;25.57;11.27;;;;;;;4.09;38.65;95301.66;5043395;28;20425;-76
2022/03/11 10:57:52;;;;;;;11.00;8.07;;;;;;;3.85;39.79;95307.28;5044071;28;20421;-75
2022/03/11 11:00:23;;;;;;;3.10;2.90;;;;;;;2.68;40.94;95306.19;5025688;28;20441;-75
2022/03/11 11:02:54;;;;;;;4.68;4.13;;;;;;;2.77;41.01;95304.59;5025952;28;20449;-75
2022/03/11 11:05:20;;;;;;;3.95;3.35;;;;;;;2.06;41.08;95295.78;5044846;28;20190;-75
2022/03/11 11:07:47;;;;;;;4.95;3.35;;;;;;;2.52;40.53;95302.31;5043855;28;20231;-75
2022/03/11 11:10:14;;;;;;;7.90;5.28;;;;;;;3.13;40.42;95298.88;5044567;28;20194;-75
2022/03/11 11:12:40;;;;;;;6.78;5.53;;;;;;;2.93;39.91;95294.59;5043222;28;20274;-74
2022/03/11 11:15:08;;;;;;;7.50;6.43;;;;;;;2.88;40.22;95284.66;5051532;28;20280;-74
2022/03/11 11:17:38;;;;;;;8.27;6.95;;;;;;;2.96;39.47;95278.00;5047164;28;20170;-75
2022/03/11 11:20:15;;;;;;;11.68;8.27;;;;;;;3.72;37.99;95281.66;5047235;28;20194;-75
2022/03/11 11:22:42;;;;;;;4.45;4.15;;;;;;;2.77;38.57;95287.34;5032612;28;20237;-75
2022/03/11 11:25:08;;;;;;;11.05;8.35;;;;;;;3.36;37.69;95284.88;5036304;28;20183;-75
2022/03/11 11:27:34;;;;;;;4.22;3.92;;;;;;;2.56;38.95;95287.34;5064773;28;20254;-76